sensor_id;sensor_type;location;lat;lon;timestamp;P1;durP1;ratioP1;P2;durP2;ratioP2
77146;SDS011;66121;52.584;9.694;2023-09-19T00:00:34;3.70;;;2.22;;
77146;SDS011;66121;52.584;9.694;2023-09-19T00:03:21;3.83;;;2.47;;
77146;SDS011;66121;52.584;9.694;2023-09-19T00:06:08;5.15;;;2.45;;
77146;SDS011;66121;52.584;9.694;2023-09-19T00:08:54;5.43;;;2.67;;
77146;SDS011;66121;52.584;9.694;2023-09-19T00:11:40;5.30;;;2.60;;
77146;SDS011;66121;52.584;9.694;2023-09-19T00:14:26;5.43;;;2.70;;
77146;SDS011;66121;52.584;9.694;2023-09-19T00:17:12;5.43;;;2.60;;
77146;SDS011;66121;52.584;9.694;2023-09-19T00:19:58;6.72;;;2.90;;
77146;SDS011;66121;52.584;9.694;2023-09-19T00:22:43;5.00;;;3.10;;
77146;SDS011;66121;52.584;9.694;2023-09-19T00:25:29;4.82;;;3.22;;
77146;SDS011;66121;52.584;9.694;2023-09-19T00:28:15;6.13;;;3.00;;
77146;SDS011;66121;52.584;9.694;2023-09-19T00:31:02;5.90;;;3.08;;
77146;SDS011;66121;52.584;9.694;2023-09-19T00:33:47;6.85;;;3.60;;
77146;SDS011;66121;52.584;9.694;2023-09-19T00:36:34;7.55;;;3.13;;
77146;SDS011;66121;52.584;9.694;2023-09-19T00:39:19;6.20;;;3.42;;
77146;SDS011;66121;52.584;9.694;2023-09-19T00:42:05;4.60;;;3.38;;
77146;SDS011;66121;52.584;9.694;2023-09-19T00:44:51;6.47;;;3.40;;
77146;SDS011;66121;52.584;9.694;2023-09-19T00:47:49;11.10;;;3.70;;
77146;SDS011;66121;52.584;9.694;2023-09-19T00:50:36;7.50;;;3.50;;
77146;SDS011;66121;52.584;9.694;2023-09-19T00:53:27;10.70;;;3.47;;
77146;SDS011;66121;52.584;9.694;2023-09-19T00:56:12;6.07;;;3.78;;
77146;SDS011;66121;52.584;9.694;2023-09-19T00:59:00;5.55;;;3.65;;
77146;SDS011;66121;52.584;9.694;2023-09-19T01:01:46;6.93;;;3.70;;
77146;SDS011;66121;52.584;9.694;2023-09-19T01:04:34;9.00;;;3.85;;
77146;SDS011;66121;52.584;9.694;2023-09-19T01:07:21;7.32;;;4.10;;
77146;SDS011;66121;52.584;9.694;2023-09-19T01:10:08;6.57;;;3.58;;
77146;SDS011;66121;52.584;9.694;2023-09-19T01:13:05;8.63;;;4.28;;
77146;SDS011;66121;52.584;9.694;2023-09-19T01:20:00;9.50;;;3.83;;
77146;SDS011;66121;52.584;9.694;2023-09-19T01:22:58;9.60;;;4.65;;
77146;SDS011;66121;52.584;9.694;2023-09-19T01:25:55;9.07;;;5.10;;
77146;SDS011;66121;52.584;9.694;2023-09-19T01:29:26;6.68;;;5.25;;
77146;SDS011;66121;52.584;9.694;2023-09-19T01:32:20;9.35;;;5.53;;
77146;SDS011;66121;52.584;9.694;2023-09-19T01:35:10;11.02;;;5.47;;
77146;SDS011;66121;52.584;9.694;2023-09-19T01:37:58;11.75;;;5.30;;
77146;SDS011;66121;52.584;9.694;2023-09-19T01:40:46;15.63;;;4.97;;
77146;SDS011;66121;52.584;9.694;2023-09-19T01:43:43;10.05;;;5.43;;
77146;SDS011;66121;52.584;9.694;2023-09-19T01:46:35;8.20;;;4.70;;
77146;SDS011;66121;52.584;9.694;2023-09-19T01:49:34;11.10;;;5.65;;
77146;SDS011;66121;52.584;9.694;2023-09-19T01:52:30;10.52;;;5.50;;
77146;SDS011;66121;52.584;9.694;2023-09-19T01:55:22;8.70;;;5.35;;
77146;SDS011;66121;52.584;9.694;2023-09-19T01:58:25;11.25;;;5.57;;
77146;SDS011;66121;52.584;9.694;2023-09-19T02:01:19;9.98;;;5.50;;
77146;SDS011;66121;52.584;9.694;2023-09-19T02:04:07;9.00;;;5.38;;
77146;SDS011;66121;52.584;9.694;2023-09-19T02:06:53;10.02;;;5.07;;
77146;SDS011;66121;52.584;9.694;2023-09-19T02:09:39;12.32;;;5.18;;
77146;SDS011;66121;52.584;9.694;2023-09-19T02:12:24;8.57;;;4.93;;
77146;SDS011;66121;52.584;9.694;2023-09-19T02:15:10;8.00;;;4.43;;
77146;SDS011;66121;52.584;9.694;2023-09-19T02:17:56;8.73;;;4.63;;
77146;SDS011;66121;52.584;9.694;2023-09-19T02:20:42;10.93;;;5.22;;
77146;SDS011;66121;52.584;9.694;2023-09-19T02:23:28;12.70;;;5.22;;
77146;SDS011;66121;52.584;9.694;2023-09-19T02:26:15;10.40;;;4.93;;
77146;SDS011;66121;52.584;9.694;2023-09-19T02:29:01;11.60;;;4.93;;
77146;SDS011;66121;52.584;9.694;2023-09-19T02:31:50;7.43;;;4.15;;
77146;SDS011;66121;52.584;9.694;2023-09-19T02:34:35;11.68;;;4.93;;
77146;SDS011;66121;52.584;9.694;2023-09-19T02:37:21;10.88;;;4.40;;
77146;SDS011;66121;52.584;9.694;2023-09-19T02:40:07;9.57;;;5.15;;
77146;SDS011;66121;52.584;9.694;2023-09-19T02:43:04;11.65;;;5.28;;
77146;SDS011;66121;52.584;9.694;2023-09-19T02:45:50;7.30;;;4.75;;
77146;SDS011;66121;52.584;9.694;2023-09-19T02:48:38;8.25;;;5.25;;
77146;SDS011;66121;52.584;9.694;2023-09-19T02:51:24;10.32;;;4.90;;
77146;SDS011;66121;52.584;9.694;2023-09-19T02:54:10;9.93;;;5.20;;
77146;SDS011;66121;52.584;9.694;2023-09-19T02:56:56;11.38;;;5.30;;
77146;SDS011;66121;52.584;9.694;2023-09-19T02:59:45;11.23;;;4.85;;
77146;SDS011;66121;52.584;9.694;2023-09-19T03:02:30;9.05;;;4.60;;
77146;SDS011;66121;52.584;9.694;2023-09-19T03:05:20;11.13;;;5.05;;
77146;SDS011;66121;52.584;9.694;2023-09-19T03:08:06;12.52;;;4.90;;
77146;SDS011;66121;52.584;9.694;2023-09-19T03:10:52;12.70;;;4.47;;
77146;SDS011;66121;52.584;9.694;2023-09-19T03:13:38;8.23;;;4.03;;
77146;SDS011;66121;52.584;9.694;2023-09-19T03:16:25;8.68;;;3.53;;
77146;SDS011;66121;52.584;9.694;2023-09-19T03:19:11;6.22;;;3.13;;
77146;SDS011;66121;52.584;9.694;2023-09-19T03:21:56;9.32;;;3.55;;
77146;SDS011;66121;52.584;9.694;2023-09-19T03:24:43;11.50;;;5.10;;
77146;SDS011;66121;52.584;9.694;2023-09-19T03:27:28;14.95;;;3.53;;
77146;SDS011;66121;52.584;9.694;2023-09-19T03:30:14;8.45;;;3.40;;
77146;SDS011;66121;52.584;9.694;2023-09-19T03:33:00;7.13;;;3.47;;
77146;SDS011;66121;52.584;9.694;2023-09-19T03:35:51;11.10;;;4.15;;
77146;SDS011;66121;52.584;9.694;2023-09-19T03:38:40;9.75;;;3.60;;
77146;SDS011;66121;52.584;9.694;2023-09-19T03:41:26;8.60;;;3.72;;
77146;SDS011;66121;52.584;9.694;2023-09-19T03:44:11;7.43;;;3.47;;
77146;SDS011;66121;52.584;9.694;2023-09-19T03:46:57;10.45;;;3.58;;
77146;SDS011;66121;52.584;9.694;2023-09-19T03:49:43;7.53;;;3.20;;
77146;SDS011;66121;52.584;9.694;2023-09-19T03:52:28;8.80;;;3.08;;
77146;SDS011;66121;52.584;9.694;2023-09-19T03:55:14;12.50;;;3.25;;
77146;SDS011;66121;52.584;9.694;2023-09-19T03:58:01;7.50;;;3.17;;
77146;SDS011;66121;52.584;9.694;2023-09-19T04:00:47;10.73;;;3.40;;
77146;SDS011;66121;52.584;9.694;2023-09-19T04:03:35;7.68;;;2.80;;
77146;SDS011;66121;52.584;9.694;2023-09-19T04:06:31;10.13;;;3.13;;
77146;SDS011;66121;52.584;9.694;2023-09-19T04:09:17;8.52;;;3.53;;
77146;SDS011;66121;52.584;9.694;2023-09-19T04:12:02;11.02;;;3.30;;
77146;SDS011;66121;52.584;9.694;2023-09-19T04:14:48;10.10;;;4.07;;
77146;SDS011;66121;52.584;9.694;2023-09-19T04:17:35;6.50;;;3.40;;
77146;SDS011;66121;52.584;9.694;2023-09-19T04:20:21;9.95;;;3.50;;
77146;SDS011;66121;52.584;9.694;2023-09-19T04:23:08;8.90;;;3.70;;
77146;SDS011;66121;52.584;9.694;2023-09-19T04:25:54;8.30;;;3.45;;
77146;SDS011;66121;52.584;9.694;2023-09-19T04:28:39;12.40;;;3.80;;
77146;SDS011;66121;52.584;9.694;2023-09-19T04:31:25;10.93;;;3.67;;
77146;SDS011;66121;52.584;9.694;2023-09-19T04:34:11;9.93;;;3.60;;
77146;SDS011;66121;52.584;9.694;2023-09-19T04:37:02;9.98;;;3.78;;
77146;SDS011;66121;52.584;9.694;2023-09-19T04:39:49;10.10;;;3.53;;
77146;SDS011;66121;52.584;9.694;2023-09-19T04:42:34;8.18;;;3.53;;
77146;SDS011;66121;52.584;9.694;2023-09-19T04:45:20;9.23;;;3.80;;
77146;SDS011;66121;52.584;9.694;2023-09-19T04:48:06;7.45;;;3.38;;
77146;SDS011;66121;52.584;9.694;2023-09-19T04:50:54;8.70;;;3.75;;
77146;SDS011;66121;52.584;9.694;2023-09-19T04:53:40;10.90;;;3.75;;
77146;SDS011;66121;52.584;9.694;2023-09-19T04:56:26;11.45;;;3.58;;
77146;SDS011;66121;52.584;9.694;2023-09-19T04:59:13;14.57;;;4.18;;
77146;SDS011;66121;52.584;9.694;2023-09-19T05:02:00;9.43;;;3.58;;
77146;SDS011;66121;52.584;9.694;2023-09-19T05:04:46;6.88;;;3.58;;
77146;SDS011;66121;52.584;9.694;2023-09-19T05:07:31;9.18;;;3.60;;
77146;SDS011;66121;52.584;9.694;2023-09-19T05:10:17;11.57;;;3.75;;
77146;SDS011;66121;52.584;9.694;2023-09-19T05:13:05;9.25;;;3.50;;
77146;SDS011;66121;52.584;9.694;2023-09-19T05:15:53;13.93;;;3.83;;
77146;SDS011;66121;52.584;9.694;2023-09-19T05:18:38;11.13;;;4.05;;
77146;SDS011;66121;52.584;9.694;2023-09-19T05:21:25;13.32;;;4.38;;
77146;SDS011;66121;52.584;9.694;2023-09-19T05:24:14;10.52;;;3.53;;
77146;SDS011;66121;52.584;9.694;2023-09-19T05:27:00;9.45;;;3.80;;
77146;SDS011;66121;52.584;9.694;2023-09-19T05:29:46;13.48;;;3.88;;
77146;SDS011;66121;52.584;9.694;2023-09-19T05:32:33;9.02;;;3.70;;
77146;SDS011;66121;52.584;9.694;2023-09-19T05:35:18;11.85;;;3.70;;
77146;SDS011;66121;52.584;9.694;2023-09-19T05:38:04;10.13;;;3.70;;
77146;SDS011;66121;52.584;9.694;2023-09-19T05:40:51;8.82;;;4.18;;
77146;SDS011;66121;52.584;9.694;2023-09-19T05:43:36;11.40;;;4.50;;
77146;SDS011;66121;52.584;9.694;2023-09-19T05:46:22;14.90;;;3.97;;
77146;SDS011;66121;52.584;9.694;2023-09-19T05:49:08;11.82;;;3.63;;
77146;SDS011;66121;52.584;9.694;2023-09-19T05:51:54;11.90;;;4.20;;
77146;SDS011;66121;52.584;9.694;2023-09-19T05:54:41;12.32;;;4.20;;
77146;SDS011;66121;52.584;9.694;2023-09-19T05:57:28;7.18;;;3.75;;
77146;SDS011;66121;52.584;9.694;2023-09-19T06:00:14;12.38;;;4.10;;
77146;SDS011;66121;52.584;9.694;2023-09-19T06:03:00;11.77;;;4.10;;
77146;SDS011;66121;52.584;9.694;2023-09-19T06:05:46;9.15;;;3.88;;
77146;SDS011;66121;52.584;9.694;2023-09-19T06:08:34;12.20;;;3.80;;
77146;SDS011;66121;52.584;9.694;2023-09-19T06:11:20;7.28;;;3.95;;
77146;SDS011;66121;52.584;9.694;2023-09-19T06:14:06;12.07;;;4.28;;
77146;SDS011;66121;52.584;9.694;2023-09-19T06:16:52;9.65;;;4.10;;
77146;SDS011;66121;52.584;9.694;2023-09-19T06:19:39;12.18;;;4.25;;
77146;SDS011;66121;52.584;9.694;2023-09-19T06:22:25;10.35;;;4.28;;
77146;SDS011;66121;52.584;9.694;2023-09-19T06:25:11;8.73;;;3.58;;
77146;SDS011;66121;52.584;9.694;2023-09-19T06:27:58;14.10;;;4.22;;
77146;SDS011;66121;52.584;9.694;2023-09-19T06:30:44;12.80;;;4.35;;
77146;SDS011;66121;52.584;9.694;2023-09-19T06:33:29;9.10;;;3.95;;
77146;SDS011;66121;52.584;9.694;2023-09-19T06:36:16;15.48;;;4.20;;
77146;SDS011;66121;52.584;9.694;2023-09-19T06:39:02;11.55;;;3.90;;
77146;SDS011;66121;52.584;9.694;2023-09-19T06:41:49;8.82;;;3.85;;
77146;SDS011;66121;52.584;9.694;2023-09-19T06:44:35;10.90;;;4.40;;
77146;SDS011;66121;52.584;9.694;2023-09-19T06:47:20;10.45;;;4.40;;
77146;SDS011;66121;52.584;9.694;2023-09-19T06:50:06;14.63;;;4.40;;
77146;SDS011;66121;52.584;9.694;2023-09-19T06:52:58;10.25;;;3.97;;
77146;SDS011;66121;52.584;9.694;2023-09-19T06:55:45;10.25;;;3.63;;
77146;SDS011;66121;52.584;9.694;2023-09-19T06:58:33;12.05;;;3.65;;
77146;SDS011;66121;52.584;9.694;2023-09-19T07:01:18;11.98;;;3.83;;
77146;SDS011;66121;52.584;9.694;2023-09-19T07:04:04;12.15;;;3.70;;
77146;SDS011;66121;52.584;9.694;2023-09-19T07:06:50;13.60;;;3.90;;
77146;SDS011;66121;52.584;9.694;2023-09-19T07:09:36;11.75;;;3.00;;
77146;SDS011;66121;52.584;9.694;2023-09-19T07:12:22;17.15;;;3.13;;
77146;SDS011;66121;52.584;9.694;2023-09-19T07:15:08;8.35;;;2.42;;
77146;SDS011;66121;52.584;9.694;2023-09-19T07:17:54;12.13;;;3.42;;
77146;SDS011;66121;52.584;9.694;2023-09-19T07:20:41;8.93;;;2.72;;
77146;SDS011;66121;52.584;9.694;2023-09-19T07:23:35;11.82;;;3.25;;
77146;SDS011;66121;52.584;9.694;2023-09-19T07:26:21;8.90;;;2.90;;
77146;SDS011;66121;52.584;9.694;2023-09-19T07:29:06;6.05;;;2.35;;
77146;SDS011;66121;52.584;9.694;2023-09-19T07:31:54;8.48;;;2.72;;
77146;SDS011;66121;52.584;9.694;2023-09-19T07:34:39;7.40;;;2.67;;
77146;SDS011;66121;52.584;9.694;2023-09-19T07:37:26;11.05;;;2.55;;
77146;SDS011;66121;52.584;9.694;2023-09-19T07:40:11;9.40;;;2.75;;
77146;SDS011;66121;52.584;9.694;2023-09-19T07:42:57;12.43;;;3.00;;
77146;SDS011;66121;52.584;9.694;2023-09-19T07:45:46;9.38;;;3.05;;
77146;SDS011;66121;52.584;9.694;2023-09-19T07:48:33;7.43;;;2.25;;
77146;SDS011;66121;52.584;9.694;2023-09-19T07:51:21;7.60;;;2.83;;
77146;SDS011;66121;52.584;9.694;2023-09-19T07:54:06;13.80;;;2.85;;
77146;SDS011;66121;52.584;9.694;2023-09-19T07:56:53;8.95;;;2.38;;
77146;SDS011;66121;52.584;9.694;2023-09-19T07:59:39;8.77;;;2.70;;
77146;SDS011;66121;52.584;9.694;2023-09-19T08:02:27;10.40;;;2.38;;
77146;SDS011;66121;52.584;9.694;2023-09-19T08:05:13;8.20;;;2.08;;
77146;SDS011;66121;52.584;9.694;2023-09-19T08:08:02;14.05;;;2.65;;
77146;SDS011;66121;52.584;9.694;2023-09-19T08:10:52;10.30;;;2.25;;
77146;SDS011;66121;52.584;9.694;2023-09-19T08:13:39;7.75;;;2.83;;
77146;SDS011;66121;52.584;9.694;2023-09-19T08:16:34;9.70;;;3.17;;
77146;SDS011;66121;52.584;9.694;2023-09-19T08:19:19;8.50;;;2.60;;
77146;SDS011;66121;52.584;9.694;2023-09-19T08:22:08;12.60;;;2.72;;
77146;SDS011;66121;52.584;9.694;2023-09-19T08:24:55;9.43;;;2.40;;
77146;SDS011;66121;52.584;9.694;2023-09-19T08:27:41;7.05;;;2.08;;
77146;SDS011;66121;52.584;9.694;2023-09-19T08:30:29;10.40;;;2.45;;
77146;SDS011;66121;52.584;9.694;2023-09-19T08:33:15;11.80;;;3.80;;
77146;SDS011;66121;52.584;9.694;2023-09-19T08:36:01;14.75;;;3.42;;
77146;SDS011;66121;52.584;9.694;2023-09-19T08:38:51;12.85;;;2.78;;
77146;SDS011;66121;52.584;9.694;2023-09-19T08:41:37;8.88;;;2.78;;
77146;SDS011;66121;52.584;9.694;2023-09-19T08:44:22;7.28;;;2.10;;
77146;SDS011;66121;52.584;9.694;2023-09-19T08:47:10;7.50;;;2.10;;
77146;SDS011;66121;52.584;9.694;2023-09-19T08:50:17;12.40;;;2.55;;
77146;SDS011;66121;52.584;9.694;2023-09-19T08:53:13;6.35;;;2.28;;
77146;SDS011;66121;52.584;9.694;2023-09-19T08:56:06;10.32;;;2.40;;
77146;SDS011;66121;52.584;9.694;2023-09-19T08:58:57;9.65;;;2.40;;
77146;SDS011;66121;52.584;9.694;2023-09-19T09:01:45;11.88;;;3.35;;
77146;SDS011;66121;52.584;9.694;2023-09-19T09:04:32;6.75;;;2.63;;
77146;SDS011;66121;52.584;9.694;2023-09-19T09:07:20;8.95;;;2.38;;
77146;SDS011;66121;52.584;9.694;2023-09-19T09:10:07;7.95;;;2.25;;
77146;SDS011;66121;52.584;9.694;2023-09-19T09:12:53;11.20;;;2.65;;
77146;SDS011;66121;52.584;9.694;2023-09-19T09:15:40;9.52;;;2.00;;
77146;SDS011;66121;52.584;9.694;2023-09-19T09:18:27;10.95;;;2.50;;
77146;SDS011;66121;52.584;9.694;2023-09-19T09:21:15;7.50;;;2.88;;
77146;SDS011;66121;52.584;9.694;2023-09-19T09:24:25;7.03;;;2.53;;
77146;SDS011;66121;52.584;9.694;2023-09-19T09:27:14;7.55;;;2.40;;
77146;SDS011;66121;52.584;9.694;2023-09-19T09:30:00;7.03;;;2.28;;
77146;SDS011;66121;52.584;9.694;2023-09-19T09:32:46;11.48;;;2.30;;
77146;SDS011;66121;52.584;9.694;2023-09-19T09:35:33;4.53;;;2.30;;
77146;SDS011;66121;52.584;9.694;2023-09-19T09:38:21;8.05;;;2.55;;
77146;SDS011;66121;52.584;9.694;2023-09-19T09:41:12;5.53;;;2.20;;
77146;SDS011;66121;52.584;9.694;2023-09-19T09:44:13;6.90;;;2.22;;
77146;SDS011;66121;52.584;9.694;2023-09-19T09:47:00;8.68;;;2.60;;
77146;SDS011;66121;52.584;9.694;2023-09-19T09:50:05;6.10;;;2.47;;
77146;SDS011;66121;52.584;9.694;2023-09-19T09:52:52;8.32;;;2.35;;
77146;SDS011;66121;52.584;9.694;2023-09-19T09:58:52;7.28;;;2.72;;
77146;SDS011;66121;52.584;9.694;2023-09-19T10:01:46;5.60;;;2.50;;
77146;SDS011;66121;52.584;9.694;2023-09-19T10:04:33;8.07;;;2.30;;
77146;SDS011;66121;52.584;9.694;2023-09-19T10:07:25;6.47;;;2.47;;
77146;SDS011;66121;52.584;9.694;2023-09-19T10:13:23;6.57;;;2.55;;
77146;SDS011;66121;52.584;9.694;2023-09-19T10:16:11;7.00;;;2.80;;
77146;SDS011;66121;52.584;9.694;2023-09-19T10:19:01;9.95;;;2.83;;
77146;SDS011;66121;52.584;9.694;2023-09-19T10:21:50;7.05;;;2.60;;
77146;SDS011;66121;52.584;9.694;2023-09-19T10:24:40;9.40;;;2.80;;
77146;SDS011;66121;52.584;9.694;2023-09-19T10:27:27;12.70;;;2.40;;
77146;SDS011;66121;52.584;9.694;2023-09-19T10:30:15;7.65;;;2.60;;
77146;SDS011;66121;52.584;9.694;2023-09-19T10:33:03;8.13;;;2.70;;
77146;SDS011;66121;52.584;9.694;2023-09-19T10:35:50;12.60;;;3.10;;
77146;SDS011;66121;52.584;9.694;2023-09-19T10:38:37;11.57;;;2.85;;
77146;SDS011;66121;52.584;9.694;2023-09-19T10:41:26;8.35;;;2.80;;
77146;SDS011;66121;52.584;9.694;2023-09-19T10:44:14;10.60;;;3.42;;
77146;SDS011;66121;52.584;9.694;2023-09-19T10:47:06;10.13;;;4.93;;
77146;SDS011;66121;52.584;9.694;2023-09-19T10:49:52;9.85;;;2.97;;
77146;SDS011;66121;52.584;9.694;2023-09-19T10:52:40;9.70;;;3.30;;
77146;SDS011;66121;52.584;9.694;2023-09-19T10:55:27;11.50;;;3.20;;
77146;SDS011;66121;52.584;9.694;2023-09-19T10:58:23;10.15;;;2.78;;
77146;SDS011;66121;52.584;9.694;2023-09-19T11:01:11;13.52;;;3.60;;
77146;SDS011;66121;52.584;9.694;2023-09-19T11:07:15;9.73;;;3.15;;
77146;SDS011;66121;52.584;9.694;2023-09-19T11:10:01;7.60;;;3.35;;
77146;SDS011;66121;52.584;9.694;2023-09-19T11:12:48;9.90;;;4.00;;
77146;SDS011;66121;52.584;9.694;2023-09-19T11:27:12;8.55;;;3.70;;
77146;SDS011;66121;52.584;9.694;2023-09-19T11:33:29;8.80;;;3.55;;
77146;SDS011;66121;52.584;9.694;2023-09-19T11:36:18;11.90;;;2.95;;
77146;SDS011;66121;52.584;9.694;2023-09-19T11:39:24;7.63;;;3.20;;
77146;SDS011;66121;52.584;9.694;2023-09-19T11:48:26;10.23;;;3.53;;
77146;SDS011;66121;52.584;9.694;2023-09-19T11:51:13;11.80;;;3.75;;
77146;SDS011;66121;52.584;9.694;2023-09-19T11:54:12;9.02;;;3.00;;
77146;SDS011;66121;52.584;9.694;2023-09-19T11:57:04;9.93;;;3.33;;
77146;SDS011;66121;52.584;9.694;2023-09-19T11:59:50;6.15;;;2.65;;
77146;SDS011;66121;52.584;9.694;2023-09-19T12:02:39;8.25;;;2.88;;
77146;SDS011;66121;52.584;9.694;2023-09-19T12:08:15;7.03;;;3.15;;
77146;SDS011;66121;52.584;9.694;2023-09-19T12:11:02;7.60;;;2.78;;
77146;SDS011;66121;52.584;9.694;2023-09-19T12:13:50;8.48;;;2.50;;
77146;SDS011;66121;52.584;9.694;2023-09-19T12:16:36;10.02;;;3.22;;
77146;SDS011;66121;52.584;9.694;2023-09-19T12:19:23;6.13;;;2.72;;
77146;SDS011;66121;52.584;9.694;2023-09-19T12:22:09;6.93;;;2.70;;
77146;SDS011;66121;52.584;9.694;2023-09-19T12:25:03;6.65;;;2.65;;
77146;SDS011;66121;52.584;9.694;2023-09-19T12:27:51;6.65;;;2.67;;
77146;SDS011;66121;52.584;9.694;2023-09-19T12:30:40;7.95;;;2.75;;
77146;SDS011;66121;52.584;9.694;2023-09-19T12:33:26;8.80;;;2.58;;
77146;SDS011;66121;52.584;9.694;2023-09-19T12:36:31;5.68;;;2.45;;
77146;SDS011;66121;52.584;9.694;2023-09-19T12:39:23;7.80;;;2.63;;
77146;SDS011;66121;52.584;9.694;2023-09-19T12:42:10;6.97;;;2.70;;
77146;SDS011;66121;52.584;9.694;2023-09-19T12:45:00;4.57;;;2.28;;
77146;SDS011;66121;52.584;9.694;2023-09-19T12:51:19;6.07;;;2.80;;
77146;SDS011;66121;52.584;9.694;2023-09-19T12:54:08;4.63;;;2.63;;
77146;SDS011;66121;52.584;9.694;2023-09-19T12:56:55;9.65;;;3.30;;
77146;SDS011;66121;52.584;9.694;2023-09-19T12:59:41;6.05;;;2.80;;
77146;SDS011;66121;52.584;9.694;2023-09-19T13:02:27;10.65;;;3.42;;
77146;SDS011;66121;52.584;9.694;2023-09-19T13:05:14;10.02;;;2.70;;
77146;SDS011;66121;52.584;9.694;2023-09-19T13:08:04;7.47;;;2.50;;
77146;SDS011;66121;52.584;9.694;2023-09-19T13:14:14;8.07;;;2.60;;
77146;SDS011;66121;52.584;9.694;2023-09-19T13:20:01;7.55;;;2.88;;
77146;SDS011;66121;52.584;9.694;2023-09-19T13:22:48;9.13;;;2.88;;
77146;SDS011;66121;52.584;9.694;2023-09-19T13:25:38;9.07;;;2.78;;
77146;SDS011;66121;52.584;9.694;2023-09-19T13:28:25;6.88;;;2.35;;
77146;SDS011;66121;52.584;9.694;2023-09-19T13:31:13;11.27;;;2.55;;
77146;SDS011;66121;52.584;9.694;2023-09-19T13:33:59;10.32;;;2.60;;
77146;SDS011;66121;52.584;9.694;2023-09-19T13:36:45;9.25;;;3.08;;
77146;SDS011;66121;52.584;9.694;2023-09-19T13:39:33;8.50;;;2.95;;
77146;SDS011;66121;52.584;9.694;2023-09-19T13:42:19;9.07;;;2.90;;
77146;SDS011;66121;52.584;9.694;2023-09-19T13:45:07;8.82;;;2.70;;
77146;SDS011;66121;52.584;9.694;2023-09-19T13:47:57;7.60;;;2.58;;
77146;SDS011;66121;52.584;9.694;2023-09-19T13:50:44;8.18;;;2.70;;
77146;SDS011;66121;52.584;9.694;2023-09-19T13:53:30;7.55;;;2.70;;
77146;SDS011;66121;52.584;9.694;2023-09-19T13:56:16;6.20;;;2.15;;
77146;SDS011;66121;52.584;9.694;2023-09-19T13:59:01;4.72;;;2.28;;
77146;SDS011;66121;52.584;9.694;2023-09-19T14:01:47;10.82;;;2.58;;
77146;SDS011;66121;52.584;9.694;2023-09-19T14:04:33;8.48;;;2.55;;
77146;SDS011;66121;52.584;9.694;2023-09-19T14:07:19;9.82;;;3.15;;
77146;SDS011;66121;52.584;9.694;2023-09-19T14:10:05;6.70;;;2.03;;
77146;SDS011;66121;52.584;9.694;2023-09-19T14:12:53;5.40;;;2.20;;
77146;SDS011;66121;52.584;9.694;2023-09-19T14:15:39;6.85;;;2.67;;
77146;SDS011;66121;52.584;9.694;2023-09-19T14:18:25;7.68;;;2.63;;
77146;SDS011;66121;52.584;9.694;2023-09-19T14:21:10;8.70;;;2.47;;
77146;SDS011;66121;52.584;9.694;2023-09-19T14:23:56;7.88;;;2.75;;
77146;SDS011;66121;52.584;9.694;2023-09-19T14:26:42;6.80;;;2.60;;
77146;SDS011;66121;52.584;9.694;2023-09-19T14:29:27;10.85;;;2.55;;
77146;SDS011;66121;52.584;9.694;2023-09-19T14:32:15;7.68;;;2.90;;
77146;SDS011;66121;52.584;9.694;2023-09-19T14:35:01;7.95;;;3.28;;
77146;SDS011;66121;52.584;9.694;2023-09-19T14:37:47;3.92;;;2.03;;
77146;SDS011;66121;52.584;9.694;2023-09-19T14:40:33;10.55;;;3.17;;
77146;SDS011;66121;52.584;9.694;2023-09-19T14:43:19;5.13;;;2.40;;
77146;SDS011;66121;52.584;9.694;2023-09-19T14:46:05;6.38;;;2.40;;
77146;SDS011;66121;52.584;9.694;2023-09-19T14:48:56;6.68;;;2.78;;
77146;SDS011;66121;52.584;9.694;2023-09-19T14:51:45;9.73;;;3.00;;
77146;SDS011;66121;52.584;9.694;2023-09-19T14:54:32;10.55;;;2.50;;
77146;SDS011;66121;52.584;9.694;2023-09-19T14:57:19;8.80;;;2.60;;
77146;SDS011;66121;52.584;9.694;2023-09-19T15:00:05;5.90;;;2.38;;
77146;SDS011;66121;52.584;9.694;2023-09-19T15:02:53;4.43;;;2.30;;
77146;SDS011;66121;52.584;9.694;2023-09-19T15:05:41;8.38;;;2.97;;
77146;SDS011;66121;52.584;9.694;2023-09-19T15:08:27;6.50;;;2.70;;
77146;SDS011;66121;52.584;9.694;2023-09-19T15:11:19;10.43;;;2.78;;
77146;SDS011;66121;52.584;9.694;2023-09-19T15:14:05;5.72;;;2.45;;
77146;SDS011;66121;52.584;9.694;2023-09-19T15:16:51;7.53;;;2.88;;
77146;SDS011;66121;52.584;9.694;2023-09-19T15:19:36;6.60;;;2.60;;
77146;SDS011;66121;52.584;9.694;2023-09-19T15:22:22;6.03;;;2.10;;
77146;SDS011;66121;52.584;9.694;2023-09-19T15:25:08;8.00;;;2.95;;
77146;SDS011;66121;52.584;9.694;2023-09-19T15:27:54;4.82;;;1.90;;
77146;SDS011;66121;52.584;9.694;2023-09-19T15:30:39;7.05;;;2.20;;
77146;SDS011;66121;52.584;9.694;2023-09-19T15:33:25;5.18;;;2.53;;
77146;SDS011;66121;52.584;9.694;2023-09-19T15:36:13;7.20;;;2.83;;
77146;SDS011;66121;52.584;9.694;2023-09-19T15:39:04;4.88;;;2.42;;
77146;SDS011;66121;52.584;9.694;2023-09-19T15:41:57;7.70;;;2.40;;
77146;SDS011;66121;52.584;9.694;2023-09-19T15:44:42;7.07;;;2.20;;
77146;SDS011;66121;52.584;9.694;2023-09-19T15:47:29;10.40;;;1.92;;
77146;SDS011;66121;52.584;9.694;2023-09-19T15:50:16;6.38;;;2.28;;
77146;SDS011;66121;52.584;9.694;2023-09-19T15:53:02;6.22;;;2.50;;
77146;SDS011;66121;52.584;9.694;2023-09-19T15:55:48;6.85;;;2.20;;
77146;SDS011;66121;52.584;9.694;2023-09-19T15:58:33;8.43;;;2.20;;
77146;SDS011;66121;52.584;9.694;2023-09-19T16:01:20;6.95;;;2.20;;
77146;SDS011;66121;52.584;9.694;2023-09-19T16:04:06;6.22;;;2.10;;
77146;SDS011;66121;52.584;9.694;2023-09-19T16:06:54;6.80;;;2.25;;
77146;SDS011;66121;52.584;9.694;2023-09-19T16:09:39;7.43;;;2.55;;
77146;SDS011;66121;52.584;9.694;2023-09-19T16:12:25;5.68;;;2.17;;
77146;SDS011;66121;52.584;9.694;2023-09-19T16:15:11;6.88;;;2.10;;
77146;SDS011;66121;52.584;9.694;2023-09-19T16:17:57;4.60;;;1.95;;
77146;SDS011;66121;52.584;9.694;2023-09-19T16:20:43;7.65;;;2.42;;
77146;SDS011;66121;52.584;9.694;2023-09-19T16:23:29;10.00;;;2.35;;
77146;SDS011;66121;52.584;9.694;2023-09-19T16:26:18;5.18;;;2.08;;
77146;SDS011;66121;52.584;9.694;2023-09-19T16:29:05;7.65;;;2.28;;
77146;SDS011;66121;52.584;9.694;2023-09-19T16:31:51;6.00;;;1.90;;
77146;SDS011;66121;52.584;9.694;2023-09-19T16:34:37;6.88;;;2.22;;
77146;SDS011;66121;52.584;9.694;2023-09-19T16:37:23;4.00;;;1.80;;
77146;SDS011;66121;52.584;9.694;2023-09-19T16:40:09;4.07;;;1.80;;
77146;SDS011;66121;52.584;9.694;2023-09-19T16:42:55;5.18;;;2.00;;
77146;SDS011;66121;52.584;9.694;2023-09-19T16:45:41;5.88;;;2.20;;
77146;SDS011;66121;52.584;9.694;2023-09-19T16:48:38;6.50;;;2.45;;
77146;SDS011;66121;52.584;9.694;2023-09-19T16:51:24;4.45;;;2.00;;
77146;SDS011;66121;52.584;9.694;2023-09-19T16:54:10;5.78;;;2.22;;
77146;SDS011;66121;52.584;9.694;2023-09-19T16:56:56;10.25;;;2.40;;
77146;SDS011;66121;52.584;9.694;2023-09-19T16:59:42;6.32;;;2.35;;
77146;SDS011;66121;52.584;9.694;2023-09-19T17:02:28;3.70;;;2.10;;
77146;SDS011;66121;52.584;9.694;2023-09-19T17:05:14;6.85;;;2.55;;
77146;SDS011;66121;52.584;9.694;2023-09-19T17:08:00;6.78;;;2.35;;
77146;SDS011;66121;52.584;9.694;2023-09-19T17:10:46;6.00;;;2.22;;
77146;SDS011;66121;52.584;9.694;2023-09-19T17:13:32;3.95;;;2.40;;
77146;SDS011;66121;52.584;9.694;2023-09-19T17:16:18;5.72;;;2.30;;
77146;SDS011;66121;52.584;9.694;2023-09-19T17:19:08;7.70;;;2.75;;
77146;SDS011;66121;52.584;9.694;2023-09-19T17:21:57;12.20;;;2.65;;
77146;SDS011;66121;52.584;9.694;2023-09-19T17:24:43;4.82;;;2.10;;
77146;SDS011;66121;52.584;9.694;2023-09-19T17:27:30;6.18;;;2.33;;
77146;SDS011;66121;52.584;9.694;2023-09-19T17:30:18;11.02;;;2.28;;
77146;SDS011;66121;52.584;9.694;2023-09-19T17:33:05;7.72;;;2.50;;